sensor_id;sensor_type;location;lat;lon;timestamp;P1;durP1;ratioP1;P2;durP2;ratioP2
32505;SDS011;18955;51.224;8.482;2023-03-01T00:01:31;15.18;;;9.18;;
32505;SDS011;18955;51.224;8.482;2023-03-01T00:03:58;12.80;;;8.52;;
32505;SDS011;18955;51.224;8.482;2023-03-01T00:06:25;10.05;;;6.95;;
32505;SDS011;18955;51.224;8.482;2023-03-01T00:08:52;13.88;;;7.80;;
32505;SDS011;18955;51.224;8.482;2023-03-01T00:11:20;17.00;;;7.68;;
32505;SDS011;18955;51.224;8.482;2023-03-01T00:13:52;11.73;;;7.53;;
32505;SDS011;18955;51.224;8.482;2023-03-01T00:16:22;13.35;;;7.88;;
32505;SDS011;18955;51.224;8.482;2023-03-01T00:18:50;12.07;;;7.38;;
32505;SDS011;18955;51.224;8.482;2023-03-01T00:21:17;11.20;;;7.60;;
32505;SDS011;18955;51.224;8.482;2023-03-01T00:23:45;9.98;;;7.47;;
32505;SDS011;18955;51.224;8.482;2023-03-01T00:26:12;12.05;;;8.30;;
32505;SDS011;18955;51.224;8.482;2023-03-01T00:28:40;12.85;;;7.68;;
32505;SDS011;18955;51.224;8.482;2023-03-01T00:31:12;11.10;;;7.53;;
32505;SDS011;18955;51.224;8.482;2023-03-01T00:33:40;12.60;;;7.57;;
32505;SDS011;18955;51.224;8.482;2023-03-01T00:36:08;11.15;;;7.25;;
32505;SDS011;18955;51.224;8.482;2023-03-01T00:38:36;11.50;;;7.60;;
32505;SDS011;18955;51.224;8.482;2023-03-01T00:41:07;11.98;;;7.55;;
32505;SDS011;18955;51.224;8.482;2023-03-01T00:43:38;11.80;;;8.00;;
32505;SDS011;18955;51.224;8.482;2023-03-01T00:46:06;10.48;;;7.10;;
32505;SDS011;18955;51.224;8.482;2023-03-01T00:48:37;11.10;;;7.60;;
32505;SDS011;18955;51.224;8.482;2023-03-01T00:51:05;17.40;;;9.82;;
32505;SDS011;18955;51.224;8.482;2023-03-01T00:53:36;11.68;;;7.80;;
32505;SDS011;18955;51.224;8.482;2023-03-01T00:56:03;15.20;;;9.57;;
32505;SDS011;18955;51.224;8.482;2023-03-01T00:58:30;12.77;;;8.27;;
32505;SDS011;18955;51.224;8.482;2023-03-01T01:00:57;15.68;;;8.52;;
32505;SDS011;18955;51.224;8.482;2023-03-01T01:03:23;11.75;;;7.72;;
32505;SDS011;18955;51.224;8.482;2023-03-01T01:05:51;12.65;;;8.30;;
32505;SDS011;18955;51.224;8.482;2023-03-01T01:08:18;15.93;;;9.02;;
32505;SDS011;18955;51.224;8.482;2023-03-01T01:10:46;15.43;;;9.27;;
32505;SDS011;18955;51.224;8.482;2023-03-01T01:13:13;12.68;;;8.10;;
32505;SDS011;18955;51.224;8.482;2023-03-01T01:18:06;17.10;;;10.82;;
32505;SDS011;18955;51.224;8.482;2023-03-01T01:20:32;14.43;;;9.07;;
32505;SDS011;18955;51.224;8.482;2023-03-01T01:23:01;16.52;;;8.57;;
32505;SDS011;18955;51.224;8.482;2023-03-01T01:25:27;11.75;;;7.45;;
32505;SDS011;18955;51.224;8.482;2023-03-01T01:27:53;11.23;;;6.88;;
32505;SDS011;18955;51.224;8.482;2023-03-01T01:30:19;16.85;;;9.73;;
32505;SDS011;18955;51.224;8.482;2023-03-01T01:32:46;16.05;;;9.70;;
32505;SDS011;18955;51.224;8.482;2023-03-01T01:35:12;12.93;;;7.47;;
32505;SDS011;18955;51.224;8.482;2023-03-01T01:37:38;20.65;;;11.32;;
32505;SDS011;18955;51.224;8.482;2023-03-01T01:40:05;16.38;;;11.02;;
32505;SDS011;18955;51.224;8.482;2023-03-01T01:47:51;14.05;;;10.15;;
32505;SDS011;18955;51.224;8.482;2023-03-01T01:50:20;14.98;;;9.95;;
32505;SDS011;18955;51.224;8.482;2023-03-01T01:52:48;15.75;;;10.52;;
32505;SDS011;18955;51.224;8.482;2023-03-01T01:55:20;16.27;;;10.02;;
32505;SDS011;18955;51.224;8.482;2023-03-01T01:57:50;15.75;;;10.00;;
32505;SDS011;18955;51.224;8.482;2023-03-01T02:00:21;15.15;;;9.90;;
32505;SDS011;18955;51.224;8.482;2023-03-01T02:02:50;15.63;;;10.07;;
32505;SDS011;18955;51.224;8.482;2023-03-01T02:05:24;15.77;;;9.52;;
32505;SDS011;18955;51.224;8.482;2023-03-01T02:07:52;17.17;;;10.00;;
32505;SDS011;18955;51.224;8.482;2023-03-01T02:10:20;14.50;;;9.77;;
32505;SDS011;18955;51.224;8.482;2023-03-01T02:12:48;15.43;;;8.88;;
32505;SDS011;18955;51.224;8.482;2023-03-01T02:15:14;15.38;;;9.60;;
32505;SDS011;18955;51.224;8.482;2023-03-01T02:17:40;15.15;;;9.57;;
32505;SDS011;18955;51.224;8.482;2023-03-01T02:20:15;18.90;;;11.07;;
32505;SDS011;18955;51.224;8.482;2023-03-01T02:22:46;16.27;;;9.73;;
32505;SDS011;18955;51.224;8.482;2023-03-01T02:30:18;14.73;;;10.30;;
32505;SDS011;18955;51.224;8.482;2023-03-01T02:32:45;16.20;;;10.55;;
32505;SDS011;18955;51.224;8.482;2023-03-01T02:35:14;16.55;;;10.65;;
32505;SDS011;18955;51.224;8.482;2023-03-01T02:37:43;13.10;;;9.70;;
32505;SDS011;18955;51.224;8.482;2023-03-01T02:40:11;14.23;;;10.13;;
32505;SDS011;18955;51.224;8.482;2023-03-01T02:42:48;15.73;;;10.10;;
32505;SDS011;18955;51.224;8.482;2023-03-01T02:45:18;16.48;;;10.40;;
32505;SDS011;18955;51.224;8.482;2023-03-01T02:47:44;14.25;;;8.70;;
32505;SDS011;18955;51.224;8.482;2023-03-01T02:51:01;17.63;;;10.63;;
32505;SDS011;18955;51.224;8.482;2023-03-01T02:53:23;15.93;;;10.90;;
32505;SDS011;18955;51.224;8.482;2023-03-01T02:55:53;15.93;;;8.98;;
32505;SDS011;18955;51.224;8.482;2023-03-01T03:00:46;17.13;;;10.52;;
32505;SDS011;18955;51.224;8.482;2023-03-01T03:03:16;16.80;;;11.02;;
32505;SDS011;18955;51.224;8.482;2023-03-01T03:05:44;17.77;;;10.25;;
32505;SDS011;18955;51.224;8.482;2023-03-01T03:08:10;15.45;;;8.55;;
32505;SDS011;18955;51.224;8.482;2023-03-01T03:10:38;14.98;;;10.57;;
32505;SDS011;18955;51.224;8.482;2023-03-01T03:13:07;16.95;;;10.43;;
32505;SDS011;18955;51.224;8.482;2023-03-01T03:15:36;21.15;;;11.20;;
32505;SDS011;18955;51.224;8.482;2023-03-01T03:18:05;18.38;;;11.05;;
32505;SDS011;18955;51.224;8.482;2023-03-01T03:20:35;15.55;;;10.02;;
32505;SDS011;18955;51.224;8.482;2023-03-01T03:23:02;16.67;;;9.88;;
32505;SDS011;18955;51.224;8.482;2023-03-01T03:25:28;13.02;;;8.18;;
32505;SDS011;18955;51.224;8.482;2023-03-01T03:27:56;15.00;;;10.00;;
32505;SDS011;18955;51.224;8.482;2023-03-01T03:30:24;14.43;;;9.32;;
32505;SDS011;18955;51.224;8.482;2023-03-01T03:32:52;15.85;;;9.60;;
32505;SDS011;18955;51.224;8.482;2023-03-01T03:35:28;14.43;;;7.82;;
32505;SDS011;18955;51.224;8.482;2023-03-01T03:37:56;18.80;;;11.57;;
32505;SDS011;18955;51.224;8.482;2023-03-01T03:40:30;19.40;;;10.60;;
32505;SDS011;18955;51.224;8.482;2023-03-01T03:42:58;16.73;;;10.93;;
32505;SDS011;18955;51.224;8.482;2023-03-01T03:45:24;18.02;;;11.75;;
32505;SDS011;18955;51.224;8.482;2023-03-01T03:47:51;19.55;;;11.27;;
32505;SDS011;18955;51.224;8.482;2023-03-01T03:50:17;15.18;;;10.45;;
32505;SDS011;18955;51.224;8.482;2023-03-01T03:52:44;15.60;;;10.05;;
32505;SDS011;18955;51.224;8.482;2023-03-01T03:55:11;11.98;;;8.10;;
32505;SDS011;18955;51.224;8.482;2023-03-01T03:57:38;20.13;;;11.38;;
32505;SDS011;18955;51.224;8.482;2023-03-01T04:00:08;18.00;;;11.23;;
32505;SDS011;18955;51.224;8.482;2023-03-01T04:02:41;17.85;;;10.73;;
32505;SDS011;18955;51.224;8.482;2023-03-01T04:05:09;17.05;;;10.15;;
32505;SDS011;18955;51.224;8.482;2023-03-01T04:07:36;19.15;;;10.93;;
32505;SDS011;18955;51.224;8.482;2023-03-01T04:10:04;15.65;;;10.63;;
32505;SDS011;18955;51.224;8.482;2023-03-01T04:12:32;14.65;;;10.43;;
32505;SDS011;18955;51.224;8.482;2023-03-01T04:15:03;17.33;;;10.38;;
32505;SDS011;18955;51.224;8.482;2023-03-01T04:17:40;19.33;;;11.20;;
32505;SDS011;18955;51.224;8.482;2023-03-01T04:20:09;14.25;;;9.07;;
32505;SDS011;18955;51.224;8.482;2023-03-01T04:22:37;20.40;;;11.23;;
32505;SDS011;18955;51.224;8.482;2023-03-01T04:25:04;16.73;;;10.40;;
32505;SDS011;18955;51.224;8.482;2023-03-01T04:27:35;18.52;;;10.02;;
32505;SDS011;18955;51.224;8.482;2023-03-01T04:30:05;16.75;;;11.30;;
32505;SDS011;18955;51.224;8.482;2023-03-01T04:32:32;17.25;;;10.52;;
32505;SDS011;18955;51.224;8.482;2023-03-01T04:37:25;16.83;;;9.82;;
32505;SDS011;18955;51.224;8.482;2023-03-01T04:39:52;19.13;;;10.38;;
32505;SDS011;18955;51.224;8.482;2023-03-01T04:42:18;17.92;;;10.18;;
32505;SDS011;18955;51.224;8.482;2023-03-01T04:44:45;13.77;;;9.73;;
32505;SDS011;18955;51.224;8.482;2023-03-01T04:47:11;19.33;;;10.93;;
32505;SDS011;18955;51.224;8.482;2023-03-01T04:49:38;15.23;;;9.77;;
32505;SDS011;18955;51.224;8.482;2023-03-01T04:52:04;23.52;;;10.85;;
32505;SDS011;18955;51.224;8.482;2023-03-01T04:54:31;19.52;;;12.07;;
32505;SDS011;18955;51.224;8.482;2023-03-01T04:56:58;18.60;;;11.68;;
32505;SDS011;18955;51.224;8.482;2023-03-01T04:59:25;17.33;;;11.38;;
32505;SDS011;18955;51.224;8.482;2023-03-01T05:01:52;10.00;;;6.75;;
32505;SDS011;18955;51.224;8.482;2023-03-01T05:04:24;20.38;;;10.75;;
32505;SDS011;18955;51.224;8.482;2023-03-01T05:06:50;17.30;;;10.20;;
32505;SDS011;18955;51.224;8.482;2023-03-01T05:09:19;20.60;;;10.70;;
32505;SDS011;18955;51.224;8.482;2023-03-01T05:11:45;12.50;;;8.52;;
32505;SDS011;18955;51.224;8.482;2023-03-01T05:14:11;15.50;;;10.13;;
32505;SDS011;18955;51.224;8.482;2023-03-01T05:16:38;19.38;;;10.70;;
32505;SDS011;18955;51.224;8.482;2023-03-01T05:19:04;16.55;;;10.60;;
32505;SDS011;18955;51.224;8.482;2023-03-01T05:21:41;12.30;;;7.60;;
32505;SDS011;18955;51.224;8.482;2023-03-01T05:24:27;16.83;;;10.18;;
32505;SDS011;18955;51.224;8.482;2023-03-01T05:26:54;14.43;;;10.43;;
32505;SDS011;18955;51.224;8.482;2023-03-01T05:29:21;15.10;;;9.70;;
32505;SDS011;18955;51.224;8.482;2023-03-01T05:31:54;15.02;;;9.63;;
32505;SDS011;18955;51.224;8.482;2023-03-01T05:34:25;16.63;;;10.18;;
32505;SDS011;18955;51.224;8.482;2023-03-01T05:36:52;17.63;;;10.65;;
32505;SDS011;18955;51.224;8.482;2023-03-01T05:39:23;14.65;;;9.48;;
32505;SDS011;18955;51.224;8.482;2023-03-01T05:41:55;17.20;;;10.20;;
32505;SDS011;18955;51.224;8.482;2023-03-01T05:44:22;16.65;;;10.63;;
32505;SDS011;18955;51.224;8.482;2023-03-01T05:49:15;13.10;;;8.70;;
32505;SDS011;18955;51.224;8.482;2023-03-01T05:51:42;18.65;;;11.40;;
32505;SDS011;18955;51.224;8.482;2023-03-01T05:54:12;21.67;;;10.00;;
32505;SDS011;18955;51.224;8.482;2023-03-01T05:56:38;19.85;;;11.25;;
32505;SDS011;18955;51.224;8.482;2023-03-01T05:59:05;21.10;;;10.93;;
32505;SDS011;18955;51.224;8.482;2023-03-01T06:01:32;15.13;;;9.38;;
32505;SDS011;18955;51.224;8.482;2023-03-01T06:03:59;22.25;;;11.25;;
32505;SDS011;18955;51.224;8.482;2023-03-01T06:06:26;18.55;;;10.43;;
32505;SDS011;18955;51.224;8.482;2023-03-01T06:08:52;16.42;;;9.88;;
32505;SDS011;18955;51.224;8.482;2023-03-01T06:11:19;19.05;;;11.05;;
32505;SDS011;18955;51.224;8.482;2023-03-01T06:13:46;18.77;;;10.55;;
32505;SDS011;18955;51.224;8.482;2023-03-01T06:16:13;15.07;;;9.27;;
32505;SDS011;18955;51.224;8.482;2023-03-01T06:18:40;13.60;;;8.18;;
32505;SDS011;18955;51.224;8.482;2023-03-01T06:21:07;16.10;;;8.35;;
32505;SDS011;18955;51.224;8.482;2023-03-01T06:23:34;15.95;;;9.63;;
32505;SDS011;18955;51.224;8.482;2023-03-01T06:28:30;14.77;;;9.25;;
32505;SDS011;18955;51.224;8.482;2023-03-01T06:30:56;15.95;;;10.32;;
32505;SDS011;18955;51.224;8.482;2023-03-01T06:33:22;13.80;;;8.85;;
32505;SDS011;18955;51.224;8.482;2023-03-01T06:35:50;15.48;;;9.07;;
32505;SDS011;18955;51.224;8.482;2023-03-01T06:38:16;15.50;;;9.40;;
32505;SDS011;18955;51.224;8.482;2023-03-01T06:40:44;17.13;;;9.32;;
32505;SDS011;18955;51.224;8.482;2023-03-01T06:43:16;13.43;;;8.38;;
32505;SDS011;18955;51.224;8.482;2023-03-01T06:45:42;11.23;;;6.32;;
32505;SDS011;18955;51.224;8.482;2023-03-01T06:48:09;17.23;;;10.20;;
32505;SDS011;18955;51.224;8.482;2023-03-01T06:50:35;10.90;;;6.25;;
32505;SDS011;18955;51.224;8.482;2023-03-01T06:53:02;18.25;;;9.00;;
32505;SDS011;18955;51.224;8.482;2023-03-01T06:57:55;17.92;;;8.18;;
32505;SDS011;18955;51.224;8.482;2023-03-01T07:00:22;13.40;;;8.68;;
32505;SDS011;18955;51.224;8.482;2023-03-01T07:02:49;17.67;;;9.45;;
32505;SDS011;18955;51.224;8.482;2023-03-01T07:05:15;17.10;;;9.25;;
32505;SDS011;18955;51.224;8.482;2023-03-01T07:07:42;17.42;;;8.57;;
32505;SDS011;18955;51.224;8.482;2023-03-01T07:10:08;16.83;;;9.45;;
32505;SDS011;18955;51.224;8.482;2023-03-01T07:12:35;16.05;;;9.00;;
32505;SDS011;18955;51.224;8.482;2023-03-01T07:15:02;14.45;;;8.38;;
32505;SDS011;18955;51.224;8.482;2023-03-01T07:17:28;17.25;;;8.57;;
32505;SDS011;18955;51.224;8.482;2023-03-01T07:19:54;12.43;;;6.45;;
32505;SDS011;18955;51.224;8.482;2023-03-01T07:22:21;16.73;;;8.85;;
32505;SDS011;18955;51.224;8.482;2023-03-01T07:24:47;15.30;;;9.20;;
32505;SDS011;18955;51.224;8.482;2023-03-01T07:27:13;15.02;;;7.43;;
32505;SDS011;18955;51.224;8.482;2023-03-01T07:29:40;13.38;;;8.60;;
32505;SDS011;18955;51.224;8.482;2023-03-01T07:32:06;14.02;;;8.45;;
32505;SDS011;18955;51.224;8.482;2023-03-01T07:34:32;16.90;;;8.75;;
32505;SDS011;18955;51.224;8.482;2023-03-01T07:36:58;12.25;;;6.68;;
32505;SDS011;18955;51.224;8.482;2023-03-01T07:39:25;14.43;;;8.70;;
32505;SDS011;18955;51.224;8.482;2023-03-01T07:41:51;16.15;;;8.02;;
32505;SDS011;18955;51.224;8.482;2023-03-01T07:44:21;14.98;;;8.65;;
32505;SDS011;18955;51.224;8.482;2023-03-01T07:49:13;14.70;;;8.35;;
32505;SDS011;18955;51.224;8.482;2023-03-01T07:51:40;10.82;;;7.57;;
32505;SDS011;18955;51.224;8.482;2023-03-01T07:54:07;15.77;;;9.18;;
32505;SDS011;18955;51.224;8.482;2023-03-01T07:56:33;11.02;;;6.10;;
32505;SDS011;18955;51.224;8.482;2023-03-01T07:58:59;10.95;;;5.85;;
32505;SDS011;18955;51.224;8.482;2023-03-01T08:01:26;8.25;;;5.85;;
32505;SDS011;18955;51.224;8.482;2023-03-01T08:03:52;14.93;;;7.65;;
32505;SDS011;18955;51.224;8.482;2023-03-01T08:06:18;14.88;;;8.90;;
32505;SDS011;18955;51.224;8.482;2023-03-01T08:08:45;16.92;;;9.52;;
32505;SDS011;18955;51.224;8.482;2023-03-01T08:11:12;17.38;;;9.15;;
32505;SDS011;18955;51.224;8.482;2023-03-01T08:13:40;13.98;;;7.72;;
32505;SDS011;18955;51.224;8.482;2023-03-01T08:16:07;11.52;;;6.78;;
32505;SDS011;18955;51.224;8.482;2023-03-01T08:18:37;17.05;;;9.65;;
32505;SDS011;18955;51.224;8.482;2023-03-01T08:21:04;14.85;;;7.57;;
32505;SDS011;18955;51.224;8.482;2023-03-01T08:23:32;18.35;;;7.88;;
32505;SDS011;18955;51.224;8.482;2023-03-01T08:26:06;15.10;;;7.20;;
32505;SDS011;18955;51.224;8.482;2023-03-01T08:28:38;13.60;;;7.00;;
32505;SDS011;18955;51.224;8.482;2023-03-01T08:33:52;16.73;;;7.07;;
32505;SDS011;18955;51.224;8.482;2023-03-01T08:36:25;15.95;;;8.90;;
32505;SDS011;18955;51.224;8.482;2023-03-01T08:38:59;16.02;;;7.32;;
32505;SDS011;18955;51.224;8.482;2023-03-01T08:41:26;12.68;;;8.10;;
32505;SDS011;18955;51.224;8.482;2023-03-01T08:43:53;14.68;;;7.13;;
32505;SDS011;18955;51.224;8.482;2023-03-01T08:46:27;14.60;;;8.30;;
32505;SDS011;18955;51.224;8.482;2023-03-01T08:48:55;16.60;;;8.00;;
32505;SDS011;18955;51.224;8.482;2023-03-01T08:51:22;20.48;;;9.85;;
32505;SDS011;18955;51.224;8.482;2023-03-01T08:53:48;14.05;;;8.48;;
32505;SDS011;18955;51.224;8.482;2023-03-01T08:56:15;14.82;;;8.20;;
32505;SDS011;18955;51.224;8.482;2023-03-01T08:58:45;16.55;;;7.93;;
32505;SDS011;18955;51.224;8.482;2023-03-01T09:01:17;12.80;;;7.45;;
32505;SDS011;18955;51.224;8.482;2023-03-01T09:03:44;15.27;;;7.95;;
32505;SDS011;18955;51.224;8.482;2023-03-01T09:08:38;12.93;;;7.25;;
32505;SDS011;18955;51.224;8.482;2023-03-01T09:11:07;10.73;;;6.68;;
32505;SDS011;18955;51.224;8.482;2023-03-01T09:13:35;14.52;;;6.45;;
32505;SDS011;18955;51.224;8.482;2023-03-01T09:16:03;13.13;;;7.47;;
32505;SDS011;18955;51.224;8.482;2023-03-01T09:18:31;13.52;;;7.00;;
32505;SDS011;18955;51.224;8.482;2023-03-01T09:21:16;12.48;;;7.43;;
32505;SDS011;18955;51.224;8.482;2023-03-01T09:23:44;12.00;;;6.10;;
32505;SDS011;18955;51.224;8.482;2023-03-01T09:26:13;16.90;;;6.28;;
32505;SDS011;18955;51.224;8.482;2023-03-01T09:28:45;13.65;;;7.40;;
32505;SDS011;18955;51.224;8.482;2023-03-01T09:31:12;10.23;;;5.53;;
32505;SDS011;18955;51.224;8.482;2023-03-01T09:33:40;15.55;;;6.90;;
32505;SDS011;18955;51.224;8.482;2023-03-01T09:36:11;14.23;;;7.32;;
32505;SDS011;18955;51.224;8.482;2023-03-01T09:38:39;17.17;;;7.65;;
32505;SDS011;18955;51.224;8.482;2023-03-01T09:41:53;14.63;;;8.75;;
32505;SDS011;18955;51.224;8.482;2023-03-01T09:46:47;12.68;;;5.90;;
32505;SDS011;18955;51.224;8.482;2023-03-01T09:51:49;14.38;;;7.47;;
32505;SDS011;18955;51.224;8.482;2023-03-01T09:54:21;12.90;;;6.90;;
32505;SDS011;18955;51.224;8.482;2023-03-01T09:56:57;12.40;;;7.28;;
32505;SDS011;18955;51.224;8.482;2023-03-01T09:59:49;14.48;;;7.10;;
32505;SDS011;18955;51.224;8.482;2023-03-01T10:05:06;13.38;;;7.63;;
32505;SDS011;18955;51.224;8.482;2023-03-01T10:10:37;14.23;;;8.63;;
32505;SDS011;18955;51.224;8.482;2023-03-01T10:15:56;15.63;;;8.05;;
32505;SDS011;18955;51.224;8.482;2023-03-01T10:18:31;14.40;;;8.50;;
32505;SDS011;18955;51.224;8.482;2023-03-01T10:21:03;13.00;;;6.97;;
32505;SDS011;18955;51.224;8.482;2023-03-01T10:23:40;14.45;;;8.30;;
32505;SDS011;18955;51.224;8.482;2023-03-01T10:29:08;17.15;;;7.85;;
32505;SDS011;18955;51.224;8.482;2023-03-01T10:31:38;16.67;;;8.52;;
32505;SDS011;18955;51.224;8.482;2023-03-01T10:34:21;14.35;;;9.10;;
32505;SDS011;18955;51.224;8.482;2023-03-01T10:37:12;15.52;;;7.95;;
32505;SDS011;18955;51.224;8.482;2023-03-01T10:47:42;12.35;;;7.47;;
32505;SDS011;18955;51.224;8.482;2023-03-01T10:50:19;13.48;;;8.23;;
32505;SDS011;18955;51.224;8.482;2023-03-01T10:52:57;10.98;;;7.07;;
32505;SDS011;18955;51.224;8.482;2023-03-01T10:55:44;12.60;;;7.80;;
32505;SDS011;18955;51.224;8.482;2023-03-01T10:58:20;11.77;;;8.10;;
32505;SDS011;18955;51.224;8.482;2023-03-01T11:03:22;11.48;;;7.28;;
32505;SDS011;18955;51.224;8.482;2023-03-01T11:05:58;14.45;;;6.75;;
32505;SDS011;18955;51.224;8.482;2023-03-01T11:16:36;18.13;;;7.10;;
32505;SDS011;18955;51.224;8.482;2023-03-01T11:21:37;13.25;;;6.70;;
32505;SDS011;18955;51.224;8.482;2023-03-01T11:24:45;13.45;;;7.35;;
32505;SDS011;18955;51.224;8.482;2023-03-01T11:27:24;10.05;;;6.57;;
32505;SDS011;18955;51.224;8.482;2023-03-01T11:34:55;10.13;;;6.20;;
32505;SDS011;18955;51.224;8.482;2023-03-01T11:37:36;14.40;;;6.97;;
32505;SDS011;18955;51.224;8.482;2023-03-01T11:40:15;9.88;;;6.55;;
32505;SDS011;18955;51.224;8.482;2023-03-01T11:45:17;9.32;;;6.90;;
32505;SDS011;18955;51.224;8.482;2023-03-01T11:50:32;9.38;;;6.25;;
32505;SDS011;18955;51.224;8.482;2023-03-01T12:01:44;10.52;;;6.50;;
32505;SDS011;18955;51.224;8.482;2023-03-01T12:09:46;10.60;;;5.53;;
32505;SDS011;18955;51.224;8.482;2023-03-01T12:21:39;7.45;;;5.18;;
32505;SDS011;18955;51.224;8.482;2023-03-01T12:23:58;9.13;;;5.65;;
32505;SDS011;18955;51.224;8.482;2023-03-01T12:37:35;8.70;;;5.93;;
32505;SDS011;18955;51.224;8.482;2023-03-01T12:43:17;12.48;;;6.90;;
32505;SDS011;18955;51.224;8.482;2023-03-01T12:46:19;12.25;;;6.60;;
32505;SDS011;18955;51.224;8.482;2023-03-01T12:51:56;10.40;;;7.07;;
32505;SDS011;18955;51.224;8.482;2023-03-01T12:54:28;10.60;;;7.15;;
32505;SDS011;18955;51.224;8.482;2023-03-01T12:57:01;12.38;;;7.22;;
32505;SDS011;18955;51.224;8.482;2023-03-01T12:59:46;13.13;;;7.18;;
32505;SDS011;18955;51.224;8.482;2023-03-01T13:05:26;11.55;;;6.18;;
32505;SDS011;18955;51.224;8.482;2023-03-01T13:10:52;10.30;;;7.25;;
32505;SDS011;18955;51.224;8.482;2023-03-01T13:13:30;11.13;;;7.05;;
32505;SDS011;18955;51.224;8.482;2023-03-01T13:15:57;14.25;;;7.88;;
32505;SDS011;18955;51.224;8.482;2023-03-01T13:18:43;19.45;;;7.10;;
32505;SDS011;18955;51.224;8.482;2023-03-01T13:21:10;13.60;;;6.90;;
32505;SDS011;18955;51.224;8.482;2023-03-01T13:23:37;8.55;;;5.28;;
32505;SDS011;18955;51.224;8.482;2023-03-01T13:31:08;15.05;;;7.18;;
32505;SDS011;18955;51.224;8.482;2023-03-01T13:33:47;10.63;;;7.03;;
32505;SDS011;18955;51.224;8.482;2023-03-01T13:38:57;10.55;;;6.57;;
32505;SDS011;18955;51.224;8.482;2023-03-01T13:49:27;13.52;;;6.88;;
32505;SDS011;18955;51.224;8.482;2023-03-01T13:52:00;9.52;;;5.88;;
32505;SDS011;18955;51.224;8.482;2023-03-01T13:54:29;13.95;;;7.40;;
32505;SDS011;18955;51.224;8.482;2023-03-01T13:56:59;13.05;;;6.88;;
32505;SDS011;18955;51.224;8.482;2023-03-01T13:59:27;12.32;;;6.97;;
32505;SDS011;18955;51.224;8.482;2023-03-01T14:01:57;11.57;;;7.53;;
32505;SDS011;18955;51.224;8.482;2023-03-01T14:04:29;12.57;;;7.28;;
32505;SDS011;18955;51.224;8.482;2023-03-01T14:09:54;9.20;;;6.30;;
32505;SDS011;18955;51.224;8.482;2023-03-01T14:15:28;10.10;;;7.28;;
32505;SDS011;18955;51.224;8.482;2023-03-01T14:18:21;9.45;;;5.97;;
32505;SDS011;18955;51.224;8.482;2023-03-01T14:20:46;12.30;;;6.40;;
32505;SDS011;18955;51.224;8.482;2023-03-01T14:23:20;11.90;;;6.70;;
32505;SDS011;18955;51.224;8.482;2023-03-01T14:25:50;11.57;;;6.53;;
32505;SDS011;18955;51.224;8.482;2023-03-01T14:28:21;12.40;;;6.50;;
32505;SDS011;18955;51.224;8.482;2023-03-01T14:30:54;14.60;;;6.68;;
32505;SDS011;18955;51.224;8.482;2023-03-01T14:33:24;8.90;;;6.70;;
32505;SDS011;18955;51.224;8.482;2023-03-01T14:38:33;9.95;;;6.60;;
32505;SDS011;18955;51.224;8.482;2023-03-01T14:43:41;9.27;;;6.28;;
32505;SDS011;18955;51.224;8.482;2023-03-01T14:46:18;11.23;;;6.15;;
32505;SDS011;18955;51.224;8.482;2023-03-01T14:51:52;10.20;;;6.57;;
32505;SDS011;18955;51.224;8.482;2023-03-01T14:54:29;9.32;;;6.25;;
32505;SDS011;18955;51.224;8.482;2023-03-01T14:56:59;12.00;;;6.45;;
32505;SDS011;18955;51.224;8.482;2023-03-01T14:59:27;9.10;;;6.10;;
32505;SDS011;18955;51.224;8.482;2023-03-01T15:01:55;11.88;;;6.50;;
32505;SDS011;18955;51.224;8.482;2023-03-01T15:04:23;9.68;;;6.05;;
32505;SDS011;18955;51.224;8.482;2023-03-01T15:06:52;8.90;;;6.15;;
32505;SDS011;18955;51.224;8.482;2023-03-01T15:09:20;10.95;;;6.28;;
32505;SDS011;18955;51.224;8.482;2023-03-01T15:11:47;11.57;;;6.03;;
32505;SDS011;18955;51.224;8.482;2023-03-01T15:14:38;15.30;;;5.80;;
32505;SDS011;18955;51.224;8.482;2023-03-01T15:19:53;12.00;;;6.45;;
32505;SDS011;18955;51.224;8.482;2023-03-01T15:22:20;14.95;;;6.78;;
32505;SDS011;18955;51.224;8.482;2023-03-01T15:24:48;12.63;;;7.13;;
32505;SDS011;18955;51.224;8.482;2023-03-01T15:27:19;12.80;;;6.85;;
32505;SDS011;18955;51.224;8.482;2023-03-01T15:29:57;16.90;;;6.68;;
32505;SDS011;18955;51.224;8.482;2023-03-01T15:32:27;9.07;;;6.32;;
32505;SDS011;18955;51.224;8.482;2023-03-01T15:34:56;11.93;;;7.25;;
32505;SDS011;18955;51.224;8.482;2023-03-01T15:43:01;11.13;;;6.40;;
32505;SDS011;18955;51.224;8.482;2023-03-01T15:45:29;12.05;;;6.68;;
32505;SDS011;18955;51.224;8.482;2023-03-01T15:48:03;13.10;;;6.40;;
32505;SDS011;18955;51.224;8.482;2023-03-01T15:50:32;9.57;;;6.10;;
32505;SDS011;18955;51.224;8.482;2023-03-01T15:53:01;10.18;;;6.78;;
32505;SDS011;18955;51.224;8.482;2023-03-01T15:55:34;14.02;;;6.80;;
32505;SDS011;18955;51.224;8.482;2023-03-01T16:00:41;11.57;;;6.47;;
32505;SDS011;18955;51.224;8.482;2023-03-01T16:03:10;10.88;;;6.88;;
32505;SDS011;18955;51.224;8.482;2023-03-01T16:05:37;9.75;;;6.03;;
32505;SDS011;18955;51.224;8.482;2023-03-01T16:08:05;8.63;;;5.93;;
32505;SDS011;18955;51.224;8.482;2023-03-01T16:10:32;12.38;;;7.32;;
32505;SDS011;18955;51.224;8.482;2023-03-01T16:12:59;10.82;;;6.55;;
32505;SDS011;18955;51.224;8.482;2023-03-01T16:15:27;10.05;;;6.65;;
32505;SDS011;18955;51.224;8.482;2023-03-01T16:17:56;10.48;;;6.07;;
32505;SDS011;18955;51.224;8.482;2023-03-01T16:20:23;10.82;;;6.25;;
32505;SDS011;18955;51.224;8.482;2023-03-01T16:22:51;15.52;;;6.00;;
32505;SDS011;18955;51.224;8.482;2023-03-01T16:25:17;12.57;;;6.90;;
32505;SDS011;18955;51.224;8.482;2023-03-01T16:27:48;9.80;;;6.15;;
32505;SDS011;18955;51.224;8.482;2023-03-01T16:30:16;9.40;;;5.93;;
32505;SDS011;18955;51.224;8.482;2023-03-01T16:32:45;11.15;;;4.85;;
32505;SDS011;18955;51.224;8.482;2023-03-01T16:35:13;9.70;;;5.63;;
32505;SDS011;18955;51.224;8.482;2023-03-01T16:37:40;10.20;;;5.97;;
32505;SDS011;18955;51.224;8.482;2023-03-01T16:40:15;7.68;;;5.30;;
32505;SDS011;18955;51.224;8.482;2023-03-01T16:42:44;9.63;;;5.93;;
32505;SDS011;18955;51.224;8.482;2023-03-01T16:45:10;7.80;;;5.07;;
32505;SDS011;18955;51.224;8.482;2023-03-01T16:47:37;10.65;;;6.10;;
32505;SDS011;18955;51.224;8.482;2023-03-01T16:50:03;6.18;;;3.63;;
32505;SDS011;18955;51.224;8.482;2023-03-01T16:52:30;11.05;;;5.95;;
32505;SDS011;18955;51.224;8.482;2023-03-01T16:54:56;11.30;;;5.70;;
32505;SDS011;18955;51.224;8.482;2023-03-01T16:57:22;9.95;;;5.85;;
32505;SDS011;18955;51.224;8.482;2023-03-01T16:59:52;8.20;;;5.75;;
32505;SDS011;18955;51.224;8.482;2023-03-01T17:02:21;13.98;;;6.38;;
32505;SDS011;18955;51.224;8.482;2023-03-01T17:04:51;11.35;;;6.38;;
32505;SDS011;18955;51.224;8.482;2023-03-01T17:07:18;9.30;;;5.90;;
32505;SDS011;18955;51.224;8.482;2023-03-01T17:09:47;13.43;;;6.13;;
32505;SDS011;18955;51.224;8.482;2023-03-01T17:14:40;9.70;;;5.35;;
32505;SDS011;18955;51.224;8.482;2023-03-01T17:17:08;8.85;;;6.03;;
32505;SDS011;18955;51.224;8.482;2023-03-01T17:22:05;12.10;;;5.60;;
32505;SDS011;18955;51.224;8.482;2023-03-01T17:26:59;9.43;;;5.63;;
32505;SDS011;18955;51.224;8.482;2023-03-01T17:29:26;10.55;;;5.93;;
32505;SDS011;18955;51.224;8.482;2023-03-01T17:31:52;11.68;;;6.30;;
32505;SDS011;18955;51.224;8.482;2023-03-01T17:34:24;14.82;;;6.47;;
32505;SDS011;18955;51.224;8.482;2023-03-01T17:36:50;12.20;;;6.47;;
32505;SDS011;18955;51.224;8.482;2023-03-01T17:39:17;9.25;;;5.82;;
32505;SDS011;18955;51.224;8.482;2023-03-01T17:41:50;11.60;;;5.93;;
32505;SDS011;18955;51.224;8.482;2023-03-01T17:44:17;11.57;;;6.32;;